sensor_id;sensor_type;location;lat;lon;timestamp;P1;durP1;ratioP1;P2;durP2;ratioP2
4597;SDS011;62772;48.646;8.906;2023-01-28T00:01:13;15.97;;;9.47;;
4597;SDS011;62772;48.646;8.906;2023-01-28T00:06:15;18.73;;;9.57;;
4597;SDS011;62772;48.646;8.906;2023-01-28T00:11:15;15.87;;;9.20;;
4597;SDS011;62772;48.646;8.906;2023-01-28T00:16:16;13.90;;;8.67;;
4597;SDS011;62772;48.646;8.906;2023-01-28T00:21:16;16.43;;;9.77;;
4597;SDS011;62772;48.646;8.906;2023-01-28T00:26:17;15.73;;;9.13;;
4597;SDS011;62772;48.646;8.906;2023-01-28T00:31:20;15.10;;;8.60;;
4597;SDS011;62772;48.646;8.906;2023-01-28T00:36:22;16.07;;;9.07;;
4597;SDS011;62772;48.646;8.906;2023-01-28T00:41:25;17.60;;;8.40;;
4597;SDS011;62772;48.646;8.906;2023-01-28T00:46:28;16.53;;;9.20;;
4597;SDS011;62772;48.646;8.906;2023-01-28T00:51:28;17.50;;;8.83;;
4597;SDS011;62772;48.646;8.906;2023-01-28T00:56:29;19.07;;;9.00;;
4597;SDS011;62772;48.646;8.906;2023-01-28T01:20:04;16.93;;;9.40;;
4597;SDS011;62772;48.646;8.906;2023-01-28T01:25:07;13.63;;;8.13;;
4597;SDS011;62772;48.646;8.906;2023-01-28T01:30:09;16.70;;;8.40;;
4597;SDS011;62772;48.646;8.906;2023-01-28T01:35:10;18.77;;;9.10;;
4597;SDS011;62772;48.646;8.906;2023-01-28T01:40:13;14.87;;;7.37;;
4597;SDS011;62772;48.646;8.906;2023-01-28T01:45:13;14.07;;;7.90;;
4597;SDS011;62772;48.646;8.906;2023-01-28T01:50:19;16.47;;;8.90;;
4597;SDS011;62772;48.646;8.906;2023-01-28T01:55:30;16.40;;;8.80;;
4597;SDS011;62772;48.646;8.906;2023-01-28T02:00:34;14.10;;;7.60;;
4597;SDS011;62772;48.646;8.906;2023-01-28T02:05:35;16.43;;;8.10;;
4597;SDS011;62772;48.646;8.906;2023-01-28T02:10:36;15.60;;;8.90;;
4597;SDS011;62772;48.646;8.906;2023-01-28T02:15:36;18.00;;;9.17;;
4597;SDS011;62772;48.646;8.906;2023-01-28T02:36:48;14.53;;;8.50;;
4597;SDS011;62772;48.646;8.906;2023-01-28T02:41:59;16.93;;;8.87;;
4597;SDS011;62772;48.646;8.906;2023-01-28T02:47:10;15.10;;;8.63;;
4597;SDS011;62772;48.646;8.906;2023-01-28T02:57:57;15.57;;;8.40;;
4597;SDS011;62772;48.646;8.906;2023-01-28T03:03:19;17.80;;;9.23;;
4597;SDS011;62772;48.646;8.906;2023-01-28T03:08:25;15.20;;;8.60;;
4597;SDS011;62772;48.646;8.906;2023-01-28T03:13:44;14.83;;;8.03;;
4597;SDS011;62772;48.646;8.906;2023-01-28T03:19:04;16.03;;;8.47;;
4597;SDS011;62772;48.646;8.906;2023-01-28T03:24:27;15.90;;;8.60;;
4597;SDS011;62772;48.646;8.906;2023-01-28T03:29:50;13.83;;;8.13;;
4597;SDS011;62772;48.646;8.906;2023-01-28T03:35:14;14.40;;;8.07;;
4597;SDS011;62772;48.646;8.906;2023-01-28T03:40:36;14.50;;;7.97;;
4597;SDS011;62772;48.646;8.906;2023-01-28T03:45:48;13.80;;;7.83;;
4597;SDS011;62772;48.646;8.906;2023-01-28T03:50:54;16.77;;;8.17;;
4597;SDS011;62772;48.646;8.906;2023-01-28T03:55:56;14.10;;;7.93;;
4597;SDS011;62772;48.646;8.906;2023-01-28T04:00:57;17.27;;;8.90;;
4597;SDS011;62772;48.646;8.906;2023-01-28T04:06:01;15.70;;;8.80;;
4597;SDS011;62772;48.646;8.906;2023-01-28T04:11:35;20.57;;;9.30;;
4597;SDS011;62772;48.646;8.906;2023-01-28T04:16:38;18.83;;;10.07;;
4597;SDS011;62772;48.646;8.906;2023-01-28T04:21:40;19.20;;;9.80;;
4597;SDS011;62772;48.646;8.906;2023-01-28T04:26:42;21.67;;;10.40;;
4597;SDS011;62772;48.646;8.906;2023-01-28T04:31:42;20.83;;;11.23;;
4597;SDS011;62772;48.646;8.906;2023-01-28T04:37:10;19.27;;;9.90;;
4597;SDS011;62772;48.646;8.906;2023-01-28T04:42:17;17.57;;;9.50;;
4597;SDS011;62772;48.646;8.906;2023-01-28T04:47:38;18.83;;;9.80;;
4597;SDS011;62772;48.646;8.906;2023-01-28T04:52:57;18.10;;;10.33;;
4597;SDS011;62772;48.646;8.906;2023-01-28T04:58:25;17.20;;;9.97;;
4597;SDS011;62772;48.646;8.906;2023-01-28T05:03:31;20.83;;;11.30;;
4597;SDS011;62772;48.646;8.906;2023-01-28T05:08:33;20.23;;;10.93;;
4597;SDS011;62772;48.646;8.906;2023-01-28T05:13:33;21.03;;;11.17;;
4597;SDS011;62772;48.646;8.906;2023-01-28T05:18:34;22.97;;;12.10;;
4597;SDS011;62772;48.646;8.906;2023-01-28T05:23:47;28.23;;;12.83;;
4597;SDS011;62772;48.646;8.906;2023-01-28T05:28:48;21.20;;;12.17;;
4597;SDS011;62772;48.646;8.906;2023-01-28T05:33:48;25.67;;;13.37;;
4597;SDS011;62772;48.646;8.906;2023-01-28T05:38:50;26.20;;;13.37;;
4597;SDS011;62772;48.646;8.906;2023-01-28T05:43:50;21.83;;;11.50;;
4597;SDS011;62772;48.646;8.906;2023-01-28T05:49:05;24.77;;;13.30;;
4597;SDS011;62772;48.646;8.906;2023-01-28T05:54:10;21.80;;;12.80;;
4597;SDS011;62772;48.646;8.906;2023-01-28T05:59:10;23.93;;;12.40;;
4597;SDS011;62772;48.646;8.906;2023-01-28T06:04:14;30.03;;;13.57;;
4597;SDS011;62772;48.646;8.906;2023-01-28T06:09:18;23.30;;;12.63;;
4597;SDS011;62772;48.646;8.906;2023-01-28T06:14:18;24.93;;;13.60;;
4597;SDS011;62772;48.646;8.906;2023-01-28T06:19:39;27.80;;;12.37;;
4597;SDS011;62772;48.646;8.906;2023-01-28T06:24:41;26.27;;;12.77;;
4597;SDS011;62772;48.646;8.906;2023-01-28T06:29:41;25.60;;;12.77;;
4597;SDS011;62772;48.646;8.906;2023-01-28T06:34:42;22.23;;;12.40;;
4597;SDS011;62772;48.646;8.906;2023-01-28T06:39:42;22.33;;;11.97;;
4597;SDS011;62772;48.646;8.906;2023-01-28T06:44:43;21.73;;;11.43;;
4597;SDS011;62772;48.646;8.906;2023-01-28T06:49:43;21.40;;;12.63;;
4597;SDS011;62772;48.646;8.906;2023-01-28T06:54:44;24.10;;;13.50;;
4597;SDS011;62772;48.646;8.906;2023-01-28T06:59:44;25.13;;;12.23;;
4597;SDS011;62772;48.646;8.906;2023-01-28T07:04:44;26.97;;;11.50;;
4597;SDS011;62772;48.646;8.906;2023-01-28T07:09:45;24.00;;;13.23;;
4597;SDS011;62772;48.646;8.906;2023-01-28T07:14:45;23.20;;;11.40;;
4597;SDS011;62772;48.646;8.906;2023-01-28T07:19:46;25.23;;;12.73;;
4597;SDS011;62772;48.646;8.906;2023-01-28T07:24:46;24.40;;;12.73;;
4597;SDS011;62772;48.646;8.906;2023-01-28T07:29:47;23.47;;;11.17;;
4597;SDS011;62772;48.646;8.906;2023-01-28T07:34:47;21.73;;;11.67;;
4597;SDS011;62772;48.646;8.906;2023-01-28T07:39:48;26.70;;;12.73;;
4597;SDS011;62772;48.646;8.906;2023-01-28T07:44:49;23.93;;;12.30;;
4597;SDS011;62772;48.646;8.906;2023-01-28T07:49:50;21.20;;;11.13;;
4597;SDS011;62772;48.646;8.906;2023-01-28T07:54:50;24.07;;;11.97;;
4597;SDS011;62772;48.646;8.906;2023-01-28T07:59:51;26.17;;;13.23;;
4597;SDS011;62772;48.646;8.906;2023-01-28T08:04:51;23.57;;;13.20;;
4597;SDS011;62772;48.646;8.906;2023-01-28T08:09:52;24.80;;;12.47;;
4597;SDS011;62772;48.646;8.906;2023-01-28T08:14:52;27.03;;;12.83;;
4597;SDS011;62772;48.646;8.906;2023-01-28T08:19:52;24.60;;;13.53;;
4597;SDS011;62772;48.646;8.906;2023-01-28T08:24:53;27.60;;;14.00;;
4597;SDS011;62772;48.646;8.906;2023-01-28T08:29:53;26.63;;;13.43;;
4597;SDS011;62772;48.646;8.906;2023-01-28T08:34:55;28.93;;;14.23;;
4597;SDS011;62772;48.646;8.906;2023-01-28T08:39:56;27.47;;;14.37;;
4597;SDS011;62772;48.646;8.906;2023-01-28T08:44:57;29.27;;;15.80;;
4597;SDS011;62772;48.646;8.906;2023-01-28T08:50:03;26.87;;;14.90;;
4597;SDS011;62772;48.646;8.906;2023-01-28T08:55:04;25.80;;;14.40;;
4597;SDS011;62772;48.646;8.906;2023-01-28T09:00:06;26.00;;;14.47;;
4597;SDS011;62772;48.646;8.906;2023-01-28T09:05:09;25.43;;;13.10;;
4597;SDS011;62772;48.646;8.906;2023-01-28T09:10:12;26.17;;;13.40;;
4597;SDS011;62772;48.646;8.906;2023-01-28T09:15:14;27.60;;;14.77;;
4597;SDS011;62772;48.646;8.906;2023-01-28T09:20:14;26.63;;;13.50;;
4597;SDS011;62772;48.646;8.906;2023-01-28T09:25:15;26.47;;;13.40;;
4597;SDS011;62772;48.646;8.906;2023-01-28T09:30:21;23.33;;;12.50;;
4597;SDS011;62772;48.646;8.906;2023-01-28T09:35:22;27.63;;;14.60;;
4597;SDS011;62772;48.646;8.906;2023-01-28T09:40:31;26.63;;;13.47;;
4597;SDS011;62772;48.646;8.906;2023-01-28T09:45:43;27.23;;;12.23;;
4597;SDS011;62772;48.646;8.906;2023-01-28T09:50:50;24.50;;;12.37;;
4597;SDS011;62772;48.646;8.906;2023-01-28T10:11:36;23.87;;;13.00;;
4597;SDS011;62772;48.646;8.906;2023-01-28T10:16:42;29.33;;;15.13;;
4597;SDS011;62772;48.646;8.906;2023-01-28T10:21:49;27.90;;;14.50;;
4597;SDS011;62772;48.646;8.906;2023-01-28T10:26:57;22.23;;;11.60;;
4597;SDS011;62772;48.646;8.906;2023-01-28T10:37:04;24.73;;;13.60;;
4597;SDS011;62772;48.646;8.906;2023-01-28T10:42:15;26.03;;;12.60;;
4597;SDS011;62772;48.646;8.906;2023-01-28T10:47:29;27.00;;;13.77;;
4597;SDS011;62772;48.646;8.906;2023-01-28T10:52:50;24.30;;;12.83;;
4597;SDS011;62772;48.646;8.906;2023-01-28T10:58:01;29.90;;;14.53;;
4597;SDS011;62772;48.646;8.906;2023-01-28T11:03:04;29.73;;;14.93;;
4597;SDS011;62772;48.646;8.906;2023-01-28T11:08:15;23.80;;;12.83;;
4597;SDS011;62772;48.646;8.906;2023-01-28T11:13:18;25.60;;;13.23;;
4597;SDS011;62772;48.646;8.906;2023-01-28T11:18:23;23.70;;;13.07;;
4597;SDS011;62772;48.646;8.906;2023-01-28T11:23:30;25.20;;;13.97;;
4597;SDS011;62772;48.646;8.906;2023-01-28T11:28:34;27.10;;;14.13;;
4597;SDS011;62772;48.646;8.906;2023-01-28T11:33:43;30.30;;;14.30;;
4597;SDS011;62772;48.646;8.906;2023-01-28T11:39:02;24.90;;;14.30;;
4597;SDS011;62772;48.646;8.906;2023-01-28T11:44:20;26.03;;;13.63;;
4597;SDS011;62772;48.646;8.906;2023-01-28T11:49:29;25.90;;;13.43;;
4597;SDS011;62772;48.646;8.906;2023-01-28T12:00:31;26.03;;;13.10;;
4597;SDS011;62772;48.646;8.906;2023-01-28T12:05:43;26.33;;;13.60;;
4597;SDS011;62772;48.646;8.906;2023-01-28T12:11:00;28.50;;;13.40;;
4597;SDS011;62772;48.646;8.906;2023-01-28T12:26:46;25.63;;;13.20;;
4597;SDS011;62772;48.646;8.906;2023-01-28T12:42:53;30.77;;;14.93;;
4597;SDS011;62772;48.646;8.906;2023-01-28T12:48:11;28.77;;;14.53;;
4597;SDS011;62772;48.646;8.906;2023-01-28T13:03:57;34.13;;;15.40;;
4597;SDS011;62772;48.646;8.906;2023-01-28T13:09:10;26.83;;;13.23;;
4597;SDS011;62772;48.646;8.906;2023-01-28T13:14:16;31.53;;;15.40;;
4597;SDS011;62772;48.646;8.906;2023-01-28T13:24:19;30.40;;;14.17;;
4597;SDS011;62772;48.646;8.906;2023-01-28T13:29:31;34.23;;;14.83;;
4597;SDS011;62772;48.646;8.906;2023-01-28T13:39:36;28.30;;;14.80;;
4597;SDS011;62772;48.646;8.906;2023-01-28T13:44:37;27.00;;;13.73;;
4597;SDS011;62772;48.646;8.906;2023-01-28T13:54:47;28.37;;;13.47;;
4597;SDS011;62772;48.646;8.906;2023-01-28T13:59:53;28.70;;;12.87;;
4597;SDS011;62772;48.646;8.906;2023-01-28T14:21:52;21.60;;;12.00;;
4597;SDS011;62772;48.646;8.906;2023-01-28T14:27:08;21.53;;;10.73;;
4597;SDS011;62772;48.646;8.906;2023-01-28T14:32:22;16.47;;;10.00;;
4597;SDS011;62772;48.646;8.906;2023-01-28T14:37:28;16.73;;;9.30;;
4597;SDS011;62772;48.646;8.906;2023-01-28T14:42:38;20.10;;;9.53;;
4597;SDS011;62772;48.646;8.906;2023-01-28T14:58:20;23.87;;;11.73;;
4597;SDS011;62772;48.646;8.906;2023-01-28T15:03:25;26.07;;;11.83;;
4597;SDS011;62772;48.646;8.906;2023-01-28T15:08:27;25.30;;;12.10;;
4597;SDS011;62772;48.646;8.906;2023-01-28T15:13:28;26.23;;;12.47;;
4597;SDS011;62772;48.646;8.906;2023-01-28T15:18:33;32.23;;;15.20;;
4597;SDS011;62772;48.646;8.906;2023-01-28T15:23:38;26.20;;;13.00;;
4597;SDS011;62772;48.646;8.906;2023-01-28T15:28:41;23.13;;;12.60;;
4597;SDS011;62772;48.646;8.906;2023-01-28T15:33:43;30.47;;;15.40;;
4597;SDS011;62772;48.646;8.906;2023-01-28T15:38:43;29.43;;;14.73;;
4597;SDS011;62772;48.646;8.906;2023-01-28T15:43:45;26.30;;;12.83;;
4597;SDS011;62772;48.646;8.906;2023-01-28T15:48:51;44.30;;;19.87;;
4597;SDS011;62772;48.646;8.906;2023-01-28T15:54:04;32.90;;;17.33;;
4597;SDS011;62772;48.646;8.906;2023-01-28T15:59:25;26.20;;;12.87;;
4597;SDS011;62772;48.646;8.906;2023-01-28T16:04:31;22.03;;;12.03;;
4597;SDS011;62772;48.646;8.906;2023-01-28T16:09:32;22.20;;;11.93;;
4597;SDS011;62772;48.646;8.906;2023-01-28T16:14:38;22.87;;;10.63;;
4597;SDS011;62772;48.646;8.906;2023-01-28T16:19:45;20.07;;;10.30;;
4597;SDS011;62772;48.646;8.906;2023-01-28T16:24:49;21.57;;;11.57;;
4597;SDS011;62772;48.646;8.906;2023-01-28T16:29:52;25.43;;;11.83;;
4597;SDS011;62772;48.646;8.906;2023-01-28T16:34:53;19.73;;;11.17;;
4597;SDS011;62772;48.646;8.906;2023-01-28T16:39:53;18.07;;;10.67;;
4597;SDS011;62772;48.646;8.906;2023-01-28T16:44:54;21.73;;;10.73;;
4597;SDS011;62772;48.646;8.906;2023-01-28T16:49:54;20.03;;;11.00;;
4597;SDS011;62772;48.646;8.906;2023-01-28T16:54:55;20.50;;;10.30;;
4597;SDS011;62772;48.646;8.906;2023-01-28T16:59:55;16.67;;;8.57;;
4597;SDS011;62772;48.646;8.906;2023-01-28T17:04:55;14.90;;;8.97;;
4597;SDS011;62772;48.646;8.906;2023-01-28T17:09:56;17.97;;;9.57;;
4597;SDS011;62772;48.646;8.906;2023-01-28T17:14:57;17.53;;;9.60;;
4597;SDS011;62772;48.646;8.906;2023-01-28T17:19:57;17.47;;;9.50;;
4597;SDS011;62772;48.646;8.906;2023-01-28T17:24:58;18.37;;;10.13;;
4597;SDS011;62772;48.646;8.906;2023-01-28T17:29:58;18.27;;;9.73;;
4597;SDS011;62772;48.646;8.906;2023-01-28T17:34:58;13.80;;;8.90;;
4597;SDS011;62772;48.646;8.906;2023-01-28T17:39:59;19.20;;;9.13;;
4597;SDS011;62772;48.646;8.906;2023-01-28T17:45:00;17.90;;;10.67;;
4597;SDS011;62772;48.646;8.906;2023-01-28T17:50:02;26.37;;;12.90;;
4597;SDS011;62772;48.646;8.906;2023-01-28T17:55:03;17.90;;;10.20;;
4597;SDS011;62772;48.646;8.906;2023-01-28T18:00:04;20.03;;;10.53;;
4597;SDS011;62772;48.646;8.906;2023-01-28T18:05:12;21.88;;;11.43;;
4597;SDS011;62772;48.646;8.906;2023-01-28T18:10:13;20.57;;;11.23;;
4597;SDS011;62772;48.646;8.906;2023-01-28T18:15:14;17.90;;;9.25;;
4597;SDS011;62772;48.646;8.906;2023-01-28T18:20:15;19.10;;;11.03;;
4597;SDS011;62772;48.646;8.906;2023-01-28T18:25:16;19.58;;;10.98;;
4597;SDS011;62772;48.646;8.906;2023-01-28T18:30:17;23.45;;;12.50;;
4597;SDS011;62772;48.646;8.906;2023-01-28T18:35:18;16.67;;;9.73;;
4597;SDS011;62772;48.646;8.906;2023-01-28T18:40:19;22.10;;;10.90;;
4597;SDS011;62772;48.646;8.906;2023-01-28T18:45:21;18.57;;;10.50;;
4597;SDS011;62772;48.646;8.906;2023-01-28T18:50:22;31.30;;;15.97;;
4597;SDS011;62772;48.646;8.906;2023-01-28T18:55:22;28.53;;;13.90;;
4597;SDS011;62772;48.646;8.906;2023-01-28T19:00:23;20.00;;;9.97;;
4597;SDS011;62772;48.646;8.906;2023-01-28T19:05:23;19.43;;;11.40;;
4597;SDS011;62772;48.646;8.906;2023-01-28T19:10:24;26.10;;;12.80;;
4597;SDS011;62772;48.646;8.906;2023-01-28T19:15:24;19.27;;;10.53;;
4597;SDS011;62772;48.646;8.906;2023-01-28T19:20:25;21.73;;;10.90;;
4597;SDS011;62772;48.646;8.906;2023-01-28T19:25:26;19.80;;;10.47;;
4597;SDS011;62772;48.646;8.906;2023-01-28T19:30:27;16.43;;;10.13;;
4597;SDS011;62772;48.646;8.906;2023-01-28T19:35:27;17.00;;;9.60;;
4597;SDS011;62772;48.646;8.906;2023-01-28T19:40:28;18.70;;;10.47;;
4597;SDS011;62772;48.646;8.906;2023-01-28T19:45:29;31.43;;;16.77;;
4597;SDS011;62772;48.646;8.906;2023-01-28T19:50:30;20.17;;;11.60;;
4597;SDS011;62772;48.646;8.906;2023-01-28T19:55:31;45.73;;;15.20;;
4597;SDS011;62772;48.646;8.906;2023-01-28T20:00:32;56.10;;;25.57;;
4597;SDS011;62772;48.646;8.906;2023-01-28T20:05:33;26.07;;;14.60;;
4597;SDS011;62772;48.646;8.906;2023-01-28T20:10:34;27.30;;;15.50;;
4597;SDS011;62772;48.646;8.906;2023-01-28T20:15:38;32.07;;;16.33;;
4597;SDS011;62772;48.646;8.906;2023-01-28T20:20:39;26.67;;;12.90;;
4597;SDS011;62772;48.646;8.906;2023-01-28T20:25:39;21.20;;;12.10;;
4597;SDS011;62772;48.646;8.906;2023-01-28T20:30:40;23.53;;;12.50;;
4597;SDS011;62772;48.646;8.906;2023-01-28T20:35:41;20.93;;;11.33;;
4597;SDS011;62772;48.646;8.906;2023-01-28T20:40:42;21.80;;;12.00;;
4597;SDS011;62772;48.646;8.906;2023-01-28T20:45:43;22.80;;;11.80;;
4597;SDS011;62772;48.646;8.906;2023-01-28T20:50:43;20.33;;;11.90;;
4597;SDS011;62772;48.646;8.906;2023-01-28T20:55:43;17.87;;;10.33;;
4597;SDS011;62772;48.646;8.906;2023-01-28T21:00:53;19.00;;;10.03;;
4597;SDS011;62772;48.646;8.906;2023-01-28T21:05:54;20.30;;;10.43;;
4597;SDS011;62772;48.646;8.906;2023-01-28T21:10:55;24.53;;;11.37;;
4597;SDS011;62772;48.646;8.906;2023-01-28T21:15:56;22.37;;;11.47;;
4597;SDS011;62772;48.646;8.906;2023-01-28T21:21:08;22.23;;;11.97;;
4597;SDS011;62772;48.646;8.906;2023-01-28T21:26:14;20.87;;;10.40;;
4597;SDS011;62772;48.646;8.906;2023-01-28T21:31:16;21.90;;;11.60;;
4597;SDS011;62772;48.646;8.906;2023-01-28T21:36:18;18.33;;;9.87;;
4597;SDS011;62772;48.646;8.906;2023-01-28T21:41:18;24.20;;;11.00;;
4597;SDS011;62772;48.646;8.906;2023-01-28T21:46:23;23.70;;;12.07;;
4597;SDS011;62772;48.646;8.906;2023-01-28T21:51:25;23.67;;;11.60;;
4597;SDS011;62772;48.646;8.906;2023-01-28T21:56:37;22.17;;;11.60;;
4597;SDS011;62772;48.646;8.906;2023-01-28T22:01:37;21.80;;;12.10;;
4597;SDS011;62772;48.646;8.906;2023-01-28T22:06:38;20.20;;;10.80;;
4597;SDS011;62772;48.646;8.906;2023-01-28T22:11:42;24.23;;;12.10;;
4597;SDS011;62772;48.646;8.906;2023-01-28T22:16:44;22.43;;;11.87;;
4597;SDS011;62772;48.646;8.906;2023-01-28T22:21:45;20.43;;;12.03;;
4597;SDS011;62772;48.646;8.906;2023-01-28T22:26:47;24.70;;;12.00;;
4597;SDS011;62772;48.646;8.906;2023-01-28T22:31:48;21.87;;;10.37;;
4597;SDS011;62772;48.646;8.906;2023-01-28T22:36:50;29.53;;;11.47;;
4597;SDS011;62772;48.646;8.906;2023-01-28T22:41:50;22.30;;;12.10;;
4597;SDS011;62772;48.646;8.906;2023-01-28T22:46:51;19.93;;;10.47;;
4597;SDS011;62772;48.646;8.906;2023-01-28T22:51:51;19.43;;;10.63;;
4597;SDS011;62772;48.646;8.906;2023-01-28T22:56:52;19.63;;;9.77;;
4597;SDS011;62772;48.646;8.906;2023-01-28T23:01:52;17.00;;;10.00;;
4597;SDS011;62772;48.646;8.906;2023-01-28T23:06:53;22.70;;;11.20;;
4597;SDS011;62772;48.646;8.906;2023-01-28T23:11:54;21.10;;;9.67;;
4597;SDS011;62772;48.646;8.906;2023-01-28T23:16:55;23.00;;;11.77;;
4597;SDS011;62772;48.646;8.906;2023-01-28T23:22:15;20.57;;;10.30;;
4597;SDS011;62772;48.646;8.906;2023-01-28T23:27:38;20.67;;;10.97;;
4597;SDS011;62772;48.646;8.906;2023-01-28T23:32:39;22.50;;;11.40;;
4597;SDS011;62772;48.646;8.906;2023-01-28T23:37:41;19.40;;;11.33;;
4597;SDS011;62772;48.646;8.906;2023-01-28T23:42:46;19.23;;;10.10;;
4597;SDS011;62772;48.646;8.906;2023-01-28T23:47:48;19.90;;;10.60;;
4597;SDS011;62772;48.646;8.906;2023-01-28T23:52:49;19.83;;;10.13;;
4597;SDS011;62772;48.646;8.906;2023-01-28T23:57:49;18.10;;;9.80;;
